Bachir Chihani — 7TJA — position and weather

sailwx.info

Track history (hours):
 
Tides and Currents Weather Stations Pressure Air Temp Water Temp Dewpoint Dewpoint Depression Visibility Wind Speed Wind Dir Waves Ship Positions

Bachir Chihani

Last reported at 2014-Sep-18 21:19 UTC. Time now 2014-Sep-19 09:54 UTC.
Position N 36°54' E 002°21'.

Length 280 m; draft 11.4 m.

Type: Ship (hazmat cat C). MMSI: 605106010.

Date/timePositionNaut miles runAvg speedWind from/ knotsBaromVisibWave heightAir tempDewpointWater temp
2014-Sep-18 21:19N 36°54' E 002°21'1114.1
2014-Sep-18 20:33N 36°52' E 002°08'3314.0
2014-Sep-18 18:11N 36°46' E 001°27'914.2
2014-Sep-18 17:33N 36°44' E 001°16'1413.9
2014-Sep-18 16:32N 36°41' E 000°59'1814.6
2014-Sep-18 15:19N 36°32' E 000°40'1215.0
2014-Sep-18 14:33N 36°26' E 000°28'51 1.0
2014-Sep-16 12:33N 35°49' W 000°16'2 1.4
2014-Sep-16 11:28N 35°51' W 000°15'3 1.3
2014-Sep-16 09:13N 35°53' W 000°13'1 0.3
2014-Sep-16 06:17N 35°54' W 000°13'1 1.8
2014-Sep-16 05:33N 35°55' W 000°13'0 0.1
2014-Sep-16 04:33N 35°55' W 000°13'0 0.2
2014-Sep-16 03:32N 35°55' W 000°12'0 0.2
2014-Sep-16 02:33N 35°55' W 000°12'0 0.2
2014-Sep-16 01:26N 35°54' W 000°12'0 0.2
2014-Sep-16 00:33N 35°54' W 000°12'0 0.3
2014-Sep-15 23:09N 35°54' W 000°11'1 0.4
2014-Sep-15 21:27N 35°54' W 000°11'0 0.5
2014-Sep-15 20:33N 35°54' W 000°10'0 0.3
2014-Sep-15 19:33N 35°54' W 000°10'0 0.5
2014-Sep-15 18:33N 35°54' W 000°09'1 0.5
2014-Sep-15 17:33N 35°55' W 000°09'1 0.6
2014-Sep-15 16:33N 35°56' W 000°09'1 0.6
2014-Sep-15 15:33N 35°56' W 000°10'2 1.6
2014-Sep-15 14:05N 35°54' W 000°10'2 3.2
2014-Sep-15 13:24N 35°51' W 000°09'1 0.6
2014-Sep-15 12:33N 35°52' W 000°09'1 0.7
2014-Sep-15 10:27N 35°53' W 000°09'5 0.6
2014-Sep-15 02:19N 35°57' W 000°06'1 1.1
2014-Sep-15 01:33N 35°56' W 000°06'1 1.4
2014-Sep-15 00:34N 35°55' W 000°05'1 0.4
2014-Sep-14 22:23N 35°56' W 000°05'1 0.6
2014-Sep-14 21:33N 35°56' W 000°06'0 0.3
2014-Sep-14 20:22N 35°56' W 000°06'0 0.1
2014-Sep-14 19:33N 35°56' W 000°06'0 0.2
2014-Sep-14 18:33N 35°56' W 000°06'0 0.3
2014-Sep-14 17:33N 35°56' W 000°07'1 1.0
2014-Sep-14 16:33N 35°55' W 000°07'2 1.7
2014-Sep-14 15:34N 35°54' W 000°06'1 1.2
2014-Sep-14 14:33N 35°53' W 000°07'1 1.4
2014-Sep-14 13:33N 35°54' W 000°09'1 1.4
2014-Sep-14 12:33N 35°54' W 000°10'1 1.1
2014-Sep-14 11:33N 35°55' W 000°11'1 0.8
2014-Sep-14 10:32N 35°54' W 000°12'3 0.6
2014-Sep-14 05:33N 35°51' W 000°14'0 0.0
2014-Sep-13 21:33N 35°51' W 000°14'0 0.0
2014-Sep-13 20:32N 35°51' W 000°14'0 0.0
2014-Sep-13 17:29N 35°51' W 000°14'0 0.0
2014-Sep-13 14:31N 35°51' W 000°14'0 0.0
2014-Sep-13 13:29N 35°51' W 000°14'0 0.0
2014-Sep-13 12:17N 35°51' W 000°14'11 3.0
2014-Sep-13 08:29N 36°02' W 000°08'5 5.5
2014-Sep-13 07:32N 36°07' W 000°06'8 6.4
2014-Sep-13 06:16N 36°12' E 000°02'6 8.7
2014-Sep-13 05:33N 36°16' E 000°08'1111.2
2014-Sep-13 04:33N 36°22' E 000°20'1211.6
2014-Sep-13 03:33N 36°28' E 000°32'1212.1
2014-Sep-13 02:33N 36°34' E 000°45'1211.8
2014-Sep-13 01:32N 36°40' E 000°58'1111.4
2014-Sep-13 00:32N 36°43' E 001°12'1111.2
2014-Sep-12 23:33N 36°45' E 001°25'1111.3
2014-Sep-12 22:34N 36°47' E 001°39'1211.6
2014-Sep-12 21:33N 36°49' E 001°53'1211.6
2014-Sep-12 20:33N 36°52' E 002°07'1211.7
2014-Sep-12 19:33N 36°54' E 002°22'1212.0
2014-Sep-12 18:33N 36°57' E 002°36'1211.7
2014-Sep-12 17:33N 36°59' E 002°51'1111.3
2014-Sep-12 16:33N 37°01' E 003°05'1110.9
2014-Sep-12 15:33N 37°02' E 003°18'1110.5
2014-Sep-12 14:33N 37°03' E 003°31'1110.5
2014-Sep-12 13:33N 37°04' E 003°44'10811.9
2014-Sep-12 04:30N 37°15' E 005°59'1612.5
2014-Sep-12 03:12N 37°17' E 006°20'13112.3
2014-Sep-11 16:32N 37°26' E 009°04'3511.4
2014-Sep-11 13:27N 37°36' E 009°46'1011.3
2014-Sep-11 12:33N 37°39' E 009°59'1111.4
2014-Sep-11 11:34N 37°39' E 010°13'1211.7
2014-Sep-11 10:31N 37°36' E 010°28'2311.6
2014-Sep-11 08:33N 37°31' E 010°56'12212.2
2014-Sep-10 22:33N 36°42' E 013°16'1212.3
2014-Sep-10 21:34N 36°40' E 013°31'1111.4
2014-Sep-10 20:33N 36°37' E 013°44'1111.3
2014-Sep-10 19:33N 36°35' E 013°58'1212.2
2014-Sep-10 18:33N 36°32' E 014°13'1212.0
2014-Sep-10 17:33N 36°30' E 014°28'1212.1
2014-Sep-10 16:33N 36°27' E 014°42'1412.0
2014-Sep-10 15:22N 36°24' E 014°60'1012.2
2014-Sep-10 14:30N 36°22' E 015°12'41611.9
2014-Sep-09 03:33N 36°38' E 023°49'1313.0
2014-Sep-09 02:33N 36°47' E 024°01'1313.0
2014-Sep-09 01:34N 36°55' E 024°14'1313.1
2014-Sep-09 00:33N 37°02' E 024°28'1313.0
2014-Sep-08 23:34N 37°08' E 024°42'1312.7
2014-Sep-08 22:33N 37°15' E 024°55'1312.9
2014-Sep-08 21:33N 37°17' E 025°11'  
Track history (hours):
 
Tides and Currents Weather Stations Pressure Air Temp Water Temp Dewpoint Dewpoint Depression Visibility Wind Speed Wind Dir Waves Ship Positions

Bachir Chihani

Last reported at 2014-Sep-18 21:19 UTC. Time now 2014-Sep-19 09:54 UTC.
Position N 36°54' E 002°21'.

Length 280 m; draft 11.4 m.

Type: Ship (hazmat cat C). MMSI: 605106010.

Date/timePositionNaut miles runAvg speedWind from/ knotsBaromVisibWave heightAir tempDewpointWater temp
2014-Sep-18 21:19N 36°54' E 002°21'1114.1
2014-Sep-18 20:33N 36°52' E 002°08'3314.0
2014-Sep-18 18:11N 36°46' E 001°27'914.2
2014-Sep-18 17:33N 36°44' E 001°16'1413.9
2014-Sep-18 16:32N 36°41' E 000°59'1814.6
2014-Sep-18 15:19N 36°32' E 000°40'1215.0
2014-Sep-18 14:33N 36°26' E 000°28'51 1.0
2014-Sep-16 12:33N 35°49' W 000°16'2 1.4
2014-Sep-16 11:28N 35°51' W 000°15'3 1.3
2014-Sep-16 09:13N 35°53' W 000°13'1 0.3
2014-Sep-16 06:17N 35°54' W 000°13'1 1.8
2014-Sep-16 05:33N 35°55' W 000°13'0 0.1
2014-Sep-16 04:33N 35°55' W 000°13'0 0.2
2014-Sep-16 03:32N 35°55' W 000°12'0 0.2
2014-Sep-16 02:33N 35°55' W 000°12'0 0.2
2014-Sep-16 01:26N 35°54' W 000°12'0 0.2
2014-Sep-16 00:33N 35°54' W 000°12'0 0.3
2014-Sep-15 23:09N 35°54' W 000°11'1 0.4
2014-Sep-15 21:27N 35°54' W 000°11'0 0.5
2014-Sep-15 20:33N 35°54' W 000°10'0 0.3
2014-Sep-15 19:33N 35°54' W 000°10'0 0.5
2014-Sep-15 18:33N 35°54' W 000°09'1 0.5
2014-Sep-15 17:33N 35°55' W 000°09'1 0.6
2014-Sep-15 16:33N 35°56' W 000°09'1 0.6
2014-Sep-15 15:33N 35°56' W 000°10'2 1.6
2014-Sep-15 14:05N 35°54' W 000°10'2 3.2
2014-Sep-15 13:24N 35°51' W 000°09'1 0.6
2014-Sep-15 12:33N 35°52' W 000°09'1 0.7
2014-Sep-15 10:27N 35°53' W 000°09'5 0.6
2014-Sep-15 02:19N 35°57' W 000°06'1 1.1
2014-Sep-15 01:33N 35°56' W 000°06'1 1.4
2014-Sep-15 00:34N 35°55' W 000°05'1 0.4
2014-Sep-14 22:23N 35°56' W 000°05'1 0.6
2014-Sep-14 21:33N 35°56' W 000°06'0 0.3
2014-Sep-14 20:22N 35°56' W 000°06'0 0.1
2014-Sep-14 19:33N 35°56' W 000°06'0 0.2
2014-Sep-14 18:33N 35°56' W 000°06'0 0.3
2014-Sep-14 17:33N 35°56' W 000°07'1 1.0
2014-Sep-14 16:33N 35°55' W 000°07'2 1.7
2014-Sep-14 15:34N 35°54' W 000°06'1 1.2
2014-Sep-14 14:33N 35°53' W 000°07'1 1.4
2014-Sep-14 13:33N 35°54' W 000°09'1 1.4
2014-Sep-14 12:33N 35°54' W 000°10'1 1.1
2014-Sep-14 11:33N 35°55' W 000°11'1 0.8
2014-Sep-14 10:32N 35°54' W 000°12'3 0.6
2014-Sep-14 05:33N 35°51' W 000°14'0 0.0
2014-Sep-13 21:33N 35°51' W 000°14'0 0.0
2014-Sep-13 20:32N 35°51' W 000°14'0 0.0
2014-Sep-13 17:29N 35°51' W 000°14'0 0.0
2014-Sep-13 14:31N 35°51' W 000°14'0 0.0
2014-Sep-13 13:29N 35°51' W 000°14'0 0.0
2014-Sep-13 12:17N 35°51' W 000°14'11 3.0
2014-Sep-13 08:29N 36°02' W 000°08'5 5.5
2014-Sep-13 07:32N 36°07' W 000°06'8 6.4
2014-Sep-13 06:16N 36°12' E 000°02'6 8.7
2014-Sep-13 05:33N 36°16' E 000°08'1111.2
2014-Sep-13 04:33N 36°22' E 000°20'1211.6
2014-Sep-13 03:33N 36°28' E 000°32'1212.1
2014-Sep-13 02:33N 36°34' E 000°45'1211.8
2014-Sep-13 01:32N 36°40' E 000°58'1111.4
2014-Sep-13 00:32N 36°43' E 001°12'1111.2
2014-Sep-12 23:33N 36°45' E 001°25'1111.3
2014-Sep-12 22:34N 36°47' E 001°39'1211.6
2014-Sep-12 21:33N 36°49' E 001°53'1211.6
2014-Sep-12 20:33N 36°52' E 002°07'1211.7
2014-Sep-12 19:33N 36°54' E 002°22'1212.0
2014-Sep-12 18:33N 36°57' E 002°36'1211.7
2014-Sep-12 17:33N 36°59' E 002°51'1111.3
2014-Sep-12 16:33N 37°01' E 003°05'1110.9
2014-Sep-12 15:33N 37°02' E 003°18'1110.5
2014-Sep-12 14:33N 37°03' E 003°31'1110.5
2014-Sep-12 13:33N 37°04' E 003°44'10811.9
2014-Sep-12 04:30N 37°15' E 005°59'1612.5
2014-Sep-12 03:12N 37°17' E 006°20'13112.3
2014-Sep-11 16:32N 37°26' E 009°04'3511.4
2014-Sep-11 13:27N 37°36' E 009°46'1011.3
2014-Sep-11 12:33N 37°39' E 009°59'1111.4
2014-Sep-11 11:34N 37°39' E 010°13'1211.7
2014-Sep-11 10:31N 37°36' E 010°28'2311.6
2014-Sep-11 08:33N 37°31' E 010°56'12212.2
2014-Sep-10 22:33N 36°42' E 013°16'1212.3
2014-Sep-10 21:34N 36°40' E 013°31'1111.4
2014-Sep-10 20:33N 36°37' E 013°44'1111.3
2014-Sep-10 19:33N 36°35' E 013°58'1212.2
2014-Sep-10 18:33N 36°32' E 014°13'1212.0
2014-Sep-10 17:33N 36°30' E 014°28'1212.1
2014-Sep-10 16:33N 36°27' E 014°42'1412.0
2014-Sep-10 15:22N 36°24' E 014°60'1012.2
2014-Sep-10 14:30N 36°22' E 015°12'41611.9
2014-Sep-09 03:33N 36°38' E 023°49'1313.0
2014-Sep-09 02:33N 36°47' E 024°01'1313.0
2014-Sep-09 01:34N 36°55' E 024°14'1313.1
2014-Sep-09 00:33N 37°02' E 024°28'1313.0
2014-Sep-08 23:34N 37°08' E 024°42'1312.7
2014-Sep-08 22:33N 37°15' E 024°55'1312.9
2014-Sep-08 21:33N 37°17' E 025°11'  

Dump ship's entire track history